createdAt,value
2022-11-29T00:01:42.715Z,4.80
2022-11-29T00:04:11.424Z,4.70
2022-11-29T00:06:40.197Z,4.90
2022-11-29T00:09:11.772Z,3.63
2022-11-29T00:12:01.969Z,4.90
2022-11-29T00:14:30.483Z,3.87
2022-11-29T00:17:02.193Z,4.20
2022-11-29T00:19:31.524Z,4.17
2022-11-29T00:22:00.024Z,4.40
2022-11-29T00:24:28.634Z,4.40
2022-11-29T00:26:58.379Z,3.20
2022-11-29T00:29:26.834Z,5.40
2022-11-29T00:31:54.883Z,4.00
2022-11-29T00:34:25.806Z,3.73
2022-11-29T00:36:53.871Z,3.33
2022-11-29T00:39:22.121Z,3.70
2022-11-29T00:41:50.228Z,3.00
2022-11-29T00:44:20.753Z,3.40
2022-11-29T00:46:49.698Z,3.30
2022-11-29T00:49:18.011Z,3.90
2022-11-29T00:51:46.496Z,3.50
2022-11-29T00:54:14.617Z,3.40
2022-11-29T00:56:43.320Z,4.07
2022-11-29T00:59:11.508Z,3.03
2022-11-29T01:01:41.359Z,3.40
2022-11-29T01:04:09.527Z,4.30
2022-11-29T01:06:38.748Z,3.60
2022-11-29T01:09:07.212Z,4.27
2022-11-29T01:11:36.053Z,3.80
2022-11-29T01:14:05.458Z,2.77
2022-11-29T01:16:34.211Z,4.73
2022-11-29T01:19:04.291Z,4.20
2022-11-29T01:21:32.983Z,3.97
2022-11-29T01:24:01.817Z,3.20
2022-11-29T01:26:31.841Z,3.13
2022-11-29T01:29:00.800Z,4.20
2022-11-29T01:31:31.273Z,3.83
2022-11-29T01:34:01.555Z,3.73
2022-11-29T01:36:31.662Z,3.77
2022-11-29T01:39:00.768Z,3.10
2022-11-29T01:41:31.588Z,4.93
2022-11-29T01:44:03.570Z,4.17
2022-11-29T01:46:33.464Z,4.00
2022-11-29T01:49:06.426Z,4.00
2022-11-29T01:51:37.575Z,4.50
2022-11-29T01:54:07.285Z,5.00
2022-11-29T01:56:36.515Z,5.50
2022-11-29T01:59:07.473Z,3.97
2022-11-29T02:01:37.238Z,5.70
2022-11-29T02:04:06.097Z,4.07
2022-11-29T02:06:36.798Z,4.90
2022-11-29T02:09:05.147Z,4.60
2022-11-29T02:11:55.490Z,5.20
2022-11-29T02:14:40.283Z,4.83
2022-11-29T02:17:17.400Z,4.37
2022-11-29T02:20:07.133Z,5.30
2022-11-29T02:22:43.162Z,5.60
2022-11-29T02:25:47.176Z,4.57
2022-11-29T02:29:07.820Z,4.20
2022-11-29T02:31:56.740Z,3.60
2022-11-29T02:34:52.043Z,3.83
2022-11-29T02:37:39.954Z,4.13
2022-11-29T02:40:33.346Z,5.07
2022-11-29T02:43:41.175Z,3.70
2022-11-29T02:46:23.063Z,3.23
2022-11-29T02:49:05.057Z,3.30
2022-11-29T02:51:44.056Z,3.23
2022-11-29T02:54:20.576Z,3.40
2022-11-29T02:56:56.517Z,3.50
2022-11-29T02:59:37.984Z,2.97
2022-11-29T03:02:22.942Z,3.60
2022-11-29T03:04:56.893Z,3.60
2022-11-29T03:07:37.062Z,3.60
2022-11-29T03:10:12.822Z,3.57
2022-11-29T03:12:42.902Z,3.30
2022-11-29T03:15:26.212Z,3.90
2022-11-29T03:18:10.418Z,3.30
2022-11-29T03:20:46.539Z,3.00
2022-11-29T03:23:22.649Z,4.00
2022-11-29T03:25:57.138Z,3.40
2022-11-29T03:28:31.095Z,3.90
2022-11-29T03:31:06.720Z,3.27
2022-11-29T03:33:46.585Z,3.80
2022-11-29T03:36:23.380Z,3.80
2022-11-29T03:38:56.462Z,3.87
2022-11-29T03:41:29.923Z,4.00
2022-11-29T03:44:04.146Z,3.20
2022-11-29T03:46:38.709Z,4.53
2022-11-29T03:49:15.178Z,3.60
2022-11-29T03:51:54.327Z,4.33
2022-11-29T03:54:29.281Z,4.17
2022-11-29T03:56:58.091Z,4.80
2022-11-29T03:59:37.705Z,3.37
2022-11-29T04:02:30.486Z,5.67
2022-11-29T04:05:34.082Z,4.60
2022-11-29T04:08:18.018Z,3.30
2022-11-29T04:11:24.214Z,4.47
2022-11-29T04:14:20.612Z,3.70
2022-11-29T04:17:39.020Z,3.23
2022-11-29T04:20:38.794Z,4.53
2022-11-29T04:23:46.152Z,4.70
2022-11-29T04:26:46.554Z,4.10
2022-11-29T04:29:32.032Z,2.90
2022-11-29T04:32:20.917Z,4.23
2022-11-29T04:35:13.328Z,3.87
2022-11-29T04:38:10.660Z,4.00
2022-11-29T04:40:57.178Z,4.47
2022-11-29T04:43:52.084Z,3.87
2022-11-29T04:46:47.789Z,4.20
2022-11-29T04:49:38.907Z,4.90
2022-11-29T04:52:24.437Z,5.00
2022-11-29T04:55:01.633Z,4.50
2022-11-29T04:57:38.537Z,4.30
2022-11-29T05:00:11.381Z,4.17
2022-11-29T05:02:50.090Z,5.07
2022-11-29T05:05:30.500Z,4.50
2022-11-29T05:08:13.150Z,4.70
2022-11-29T05:10:49.971Z,3.23
2022-11-29T05:13:27.661Z,4.57
2022-11-29T05:16:23.940Z,3.93
2022-11-29T05:19:05.218Z,4.03
2022-11-29T05:21:48.330Z,4.60
2022-11-29T05:24:37.070Z,3.73
2022-11-29T05:27:14.886Z,4.70
2022-11-29T05:29:51.106Z,3.83
2022-11-29T05:32:36.442Z,3.90
2022-11-29T05:35:48.389Z,3.33
2022-11-29T05:38:42.150Z,4.50
2022-11-29T05:41:29.275Z,3.83
2022-11-29T05:44:09.079Z,4.00
2022-11-29T05:46:45.278Z,4.70
2022-11-29T05:49:28.427Z,3.70
2022-11-29T05:52:07.241Z,3.73
2022-11-29T05:54:39.435Z,3.60
2022-11-29T05:57:16.101Z,4.47
2022-11-29T05:59:47.571Z,6.37
2022-11-29T06:02:29.535Z,6.97
2022-11-29T06:05:07.761Z,6.10
2022-11-29T06:07:44.785Z,4.97
2022-11-29T06:10:17.829Z,4.30
2022-11-29T06:12:58.321Z,4.80
2022-11-29T06:15:50.135Z,5.40
2022-11-29T06:18:37.458Z,3.33
2022-11-29T06:21:29.963Z,4.07
2022-11-29T06:24:27.031Z,4.13
2022-11-29T06:27:11.443Z,3.83
2022-11-29T06:29:50.811Z,4.27
2022-11-29T06:32:28.317Z,4.97
2022-11-29T06:35:04.173Z,5.97
2022-11-29T06:37:40.808Z,4.97
2022-11-29T06:40:15.902Z,4.30
2022-11-29T06:42:44.214Z,5.87
2022-11-29T06:45:15.028Z,5.10
2022-11-29T06:47:47.101Z,5.30
2022-11-29T06:50:32.362Z,4.43
2022-11-29T06:53:12.096Z,6.40
2022-11-29T06:55:47.715Z,5.40
2022-11-29T06:58:36.349Z,4.67
2022-11-29T07:01:12.037Z,3.23
2022-11-29T07:04:00.165Z,4.53
2022-11-29T07:06:30.689Z,4.07
2022-11-29T07:09:02.804Z,4.53
2022-11-29T07:11:32.773Z,3.90
2022-11-29T07:14:01.457Z,5.27
2022-11-29T07:16:34.977Z,4.93
2022-11-29T07:19:17.479Z,4.30
2022-11-29T07:21:54.720Z,4.63
2022-11-29T07:24:42.975Z,4.20
2022-11-29T07:27:21.219Z,5.00
2022-11-29T07:30:10.488Z,4.17
2022-11-29T07:32:51.357Z,3.73
2022-11-29T07:35:28.845Z,3.90
2022-11-29T07:38:10.048Z,5.30
2022-11-29T07:40:45.518Z,5.40
2022-11-29T07:43:28.054Z,4.70
2022-11-29T07:45:57.306Z,3.90
2022-11-29T07:48:25.456Z,4.67
2022-11-29T07:50:54.033Z,5.00
2022-11-29T07:53:24.134Z,5.30
2022-11-29T07:55:54.708Z,6.80
2022-11-29T07:58:22.867Z,5.23
2022-11-29T08:00:52.581Z,5.37
2022-11-29T08:03:20.669Z,4.27
2022-11-29T08:05:49.198Z,6.00
2022-11-29T08:08:17.678Z,6.63
2022-11-29T08:10:46.089Z,4.40
2022-11-29T08:13:15.780Z,3.70
2022-11-29T08:15:47.716Z,5.00
2022-11-29T08:18:16.703Z,4.33
2022-11-29T08:20:46.383Z,4.90
2022-11-29T08:23:15.745Z,3.30
2022-11-29T08:25:45.432Z,3.67
2022-11-29T08:28:13.931Z,3.63
2022-11-29T08:30:43.427Z,3.00
2022-11-29T08:33:11.629Z,2.90
2022-11-29T08:35:40.143Z,3.70
2022-11-29T08:38:08.219Z,4.07
2022-11-29T08:40:36.627Z,2.97
2022-11-29T08:43:04.705Z,2.47
2022-11-29T08:45:32.931Z,3.10
2022-11-29T08:48:02.698Z,2.97
2022-11-29T08:50:30.951Z,4.00
2022-11-29T08:53:17.213Z,3.67
2022-11-29T08:55:46.679Z,3.17
2022-11-29T08:58:16.393Z,2.80
2022-11-29T09:00:47.282Z,3.50
2022-11-29T09:03:34.323Z,2.70
2022-11-29T09:06:11.979Z,2.73
2022-11-29T09:08:40.924Z,2.67
2022-11-29T09:11:13.282Z,4.93
2022-11-29T09:13:42.350Z,4.17
2022-11-29T09:16:12.946Z,2.83
2022-11-29T09:18:48.544Z,3.60
2022-11-29T09:21:20.029Z,3.80
2022-11-29T09:23:48.376Z,3.20
2022-11-29T09:26:19.866Z,3.17
2022-11-29T09:28:47.983Z,3.27
2022-11-29T09:31:18.393Z,4.63
2022-11-29T09:33:48.122Z,4.50
2022-11-29T09:36:17.376Z,3.10
2022-11-29T09:38:45.486Z,4.93
2022-11-29T09:41:33.495Z,3.90
2022-11-29T09:44:10.561Z,4.50
2022-11-29T09:46:52.247Z,5.47
2022-11-29T09:52:34.459Z,3.60
2022-11-29T09:55:15.548Z,5.23
2022-11-29T09:57:45.062Z,4.50
2022-11-29T10:00:17.482Z,4.17
2022-11-29T10:02:49.501Z,4.70
2022-11-29T10:05:23.086Z,3.73
2022-11-29T10:08:00.725Z,3.20
2022-11-29T10:10:37.789Z,3.10
2022-11-29T10:13:14.140Z,3.50
2022-11-29T10:15:45.611Z,3.07
2022-11-29T10:18:20.826Z,4.07
2022-11-29T10:20:53.626Z,2.33
2022-11-29T10:23:28.252Z,3.60
2022-11-29T10:25:58.394Z,3.33
2022-11-29T10:28:30.732Z,3.57
2022-11-29T10:31:04.781Z,3.33
2022-11-29T10:33:40.444Z,2.50
2022-11-29T10:36:21.020Z,5.20
2022-11-29T10:38:51.758Z,3.90
2022-11-29T10:41:23.486Z,4.57
2022-11-29T10:43:53.377Z,3.77
2022-11-29T10:46:29.457Z,3.27
2022-11-29T10:48:59.803Z,3.37
2022-11-29T10:51:28.362Z,4.23
2022-11-29T10:54:03.611Z,4.57
2022-11-29T10:56:37.746Z,3.67
2022-11-29T10:59:09.354Z,4.50
2022-11-29T11:01:42.212Z,4.40
2022-11-29T11:04:16.881Z,4.23
2022-11-29T11:06:47.659Z,3.17
2022-11-29T11:09:22.175Z,3.77
2022-11-29T11:11:55.329Z,3.20
2022-11-29T11:14:26.180Z,3.40
2022-11-29T11:16:54.909Z,4.00
2022-11-29T11:19:29.946Z,3.63
2022-11-29T11:21:59.421Z,4.30
2022-11-29T11:24:32.262Z,4.03
2022-11-29T11:27:02.542Z,4.20
2022-11-29T11:29:39.244Z,4.27
2022-11-29T11:32:17.475Z,5.13
2022-11-29T11:34:52.843Z,3.83
2022-11-29T11:37:24.888Z,4.03
2022-11-29T11:39:56.824Z,3.90
2022-11-29T11:42:38.288Z,5.07
2022-11-29T11:45:24.228Z,4.80
2022-11-29T11:47:54.170Z,5.60
2022-11-29T11:50:30.004Z,3.37
2022-11-29T11:53:00.010Z,5.30
2022-11-29T11:55:37.235Z,5.17
2022-11-29T11:58:16.274Z,4.10
2022-11-29T12:01:05.732Z,5.80
2022-11-29T12:03:51.948Z,4.20
2022-11-29T12:06:48.480Z,4.53
2022-11-29T12:09:24.838Z,3.80
2022-11-29T12:12:01.731Z,4.50
2022-11-29T12:14:45.207Z,5.30
2022-11-29T12:17:22.093Z,5.13
2022-11-29T12:20:04.493Z,5.40
2022-11-29T12:22:41.525Z,3.90
2022-11-29T12:25:17.137Z,4.60
2022-11-29T12:27:46.593Z,2.90
2022-11-29T12:30:16.471Z,4.63
2022-11-29T12:33:07.971Z,3.57
2022-11-29T12:36:07.115Z,3.20
2022-11-29T12:39:01.855Z,4.40
2022-11-29T12:41:43.564Z,2.53
2022-11-29T12:44:23.915Z,4.30
2022-11-29T12:47:28.190Z,5.70
2022-11-29T12:50:01.396Z,8.73
2022-11-29T12:52:40.352Z,6.77
2022-11-29T12:55:20.994Z,5.73
2022-11-29T12:57:56.435Z,6.60
2022-11-29T13:00:30.150Z,7.90
2022-11-29T13:03:10.551Z,7.93
2022-11-29T13:05:53.745Z,8.30
2022-11-29T13:08:54.839Z,7.30
2022-11-29T13:11:26.979Z,6.30
2022-11-29T13:14:20.284Z,5.80
2022-11-29T13:16:57.503Z,6.50
2022-11-29T13:19:36.143Z,6.70
2022-11-29T13:22:13.436Z,6.00
2022-11-29T13:24:45.377Z,5.30
2022-11-29T13:27:19.721Z,4.97
2022-11-29T13:29:49.410Z,5.50
2022-11-29T13:32:32.653Z,4.40
2022-11-29T13:35:06.217Z,4.97
2022-11-29T13:37:40.400Z,4.20
2022-11-29T13:40:23.055Z,3.50
2022-11-29T13:42:59.799Z,3.20
2022-11-29T13:45:35.807Z,4.00
2022-11-29T13:48:27.896Z,5.10
2022-11-29T13:50:57.534Z,3.93
2022-11-29T13:53:29.828Z,5.60
2022-11-29T13:56:01.839Z,3.93
2022-11-29T13:58:40.059Z,4.30
2022-11-29T14:01:11.382Z,3.20
2022-11-29T14:03:42.798Z,3.00
2022-11-29T14:06:14.494Z,3.40
2022-11-29T14:09:22.444Z,3.30
2022-11-29T14:11:59.047Z,3.27
2022-11-29T14:14:32.207Z,2.30
2022-11-29T14:17:02.396Z,2.57
2022-11-29T14:19:34.304Z,2.50
2022-11-29T14:22:22.873Z,2.17
2022-11-29T14:25:35.352Z,4.30
2022-11-29T14:28:18.124Z,3.10
2022-11-29T14:30:51.870Z,2.50
2022-11-29T14:33:45.381Z,3.47
2022-11-29T14:36:51.673Z,2.60
2022-11-29T14:39:42.603Z,2.17
2022-11-29T14:42:17.229Z,2.67
2022-11-29T14:44:48.285Z,2.90
2022-11-29T14:47:25.130Z,4.07
2022-11-29T14:49:55.481Z,3.30
2022-11-29T14:52:32.306Z,2.70
2022-11-29T14:55:04.927Z,4.30
2022-11-29T14:58:07.000Z,2.33
2022-11-29T15:01:11.146Z,2.57
2022-11-29T15:03:49.792Z,2.30
2022-11-29T15:06:28.201Z,2.77
2022-11-29T15:09:04.804Z,2.53
2022-11-29T15:11:49.674Z,2.70
2022-11-29T15:14:25.101Z,1.70
2022-11-29T15:17:06.309Z,2.70
2022-11-29T15:20:03.772Z,3.20
2022-11-29T15:22:46.875Z,2.87
2022-11-29T15:25:21.079Z,2.67
2022-11-29T15:27:56.638Z,3.50
2022-11-29T15:30:34.577Z,3.20
2022-11-29T15:33:07.979Z,3.33
2022-11-29T15:35:37.511Z,3.43
2022-11-29T15:38:05.833Z,2.70
2022-11-29T15:40:37.566Z,2.60
2022-11-29T15:43:16.928Z,3.27
2022-11-29T15:45:49.143Z,3.20
2022-11-29T15:48:21.289Z,3.70
2022-11-29T15:50:59.237Z,2.97
2022-11-29T15:53:30.964Z,3.57
2022-11-29T15:56:03.454Z,3.27
2022-11-29T15:58:34.313Z,2.77
2022-11-29T16:01:03.557Z,3.80
2022-11-29T16:03:34.624Z,4.20
2022-11-29T16:06:11.272Z,4.30
2022-11-29T16:16:32.354Z,3.00
2022-11-29T16:19:40.447Z,2.93
2022-11-29T16:25:55.708Z,2.60
2022-11-29T16:28:27.842Z,3.60
2022-11-29T16:30:56.124Z,3.17
2022-11-29T16:33:25.860Z,2.97
2022-11-29T16:36:05.545Z,3.33
2022-11-29T16:38:34.030Z,3.20
2022-11-29T16:41:04.652Z,3.23
2022-11-29T16:43:55.262Z,2.90
2022-11-29T16:46:35.787Z,2.70
2022-11-29T16:49:30.692Z,3.90
2022-11-29T16:51:58.903Z,2.50
2022-11-29T16:54:28.747Z,2.57
2022-11-29T16:56:58.410Z,2.90
2022-11-29T16:59:29.070Z,2.80
2022-11-29T17:01:57.862Z,2.60
2022-11-29T17:04:26.259Z,2.30
2022-11-29T17:06:55.602Z,2.40
2022-11-29T17:09:26.044Z,2.30
2022-11-29T17:11:54.343Z,2.27
2022-11-29T17:14:22.686Z,2.90
2022-11-29T17:16:52.315Z,2.40
2022-11-29T17:19:22.151Z,2.73
2022-11-29T17:21:50.657Z,2.53
2022-11-29T17:24:20.634Z,2.50
2022-11-29T17:26:48.881Z,2.10
2022-11-29T17:29:18.281Z,2.60
2022-11-29T17:31:47.791Z,2.17
2022-11-29T17:34:18.139Z,2.40
2022-11-29T17:36:46.372Z,3.07
2022-11-29T17:39:15.867Z,2.63
2022-11-29T17:41:44.108Z,2.00
2022-11-29T17:44:12.200Z,2.07
2022-11-29T17:46:40.598Z,2.17
2022-11-29T17:49:10.491Z,2.90
2022-11-29T17:51:56.464Z,3.03
2022-11-29T17:54:24.798Z,2.07
2022-11-29T17:56:53.277Z,2.63
2022-11-29T17:59:21.518Z,2.70
2022-11-29T18:01:50.044Z,3.67
2022-11-29T18:04:18.223Z,2.80
2022-11-29T18:06:50.366Z,3.73
2022-11-29T18:09:20.347Z,2.90
2022-11-29T18:11:50.340Z,2.27
2022-11-29T18:14:20.534Z,2.13
2022-11-29T18:16:48.703Z,3.30
2022-11-29T18:19:18.747Z,3.47
2022-11-29T18:21:49.100Z,2.70
2022-11-29T18:24:17.340Z,2.70
2022-11-29T18:26:45.822Z,2.50
2022-11-29T18:29:14.003Z,2.90
2022-11-29T18:31:43.844Z,2.30
2022-11-29T18:34:13.791Z,2.80
2022-11-29T18:36:44.507Z,2.40
2022-11-29T18:39:15.950Z,2.90
2022-11-29T18:41:45.743Z,2.40
2022-11-29T18:44:15.244Z,3.00
2022-11-29T18:46:44.780Z,2.50
2022-11-29T18:49:15.018Z,2.90
2022-11-29T18:51:45.374Z,3.20
2022-11-29T18:54:17.753Z,3.60
2022-11-29T18:56:46.781Z,4.50
2022-11-29T18:59:17.137Z,4.77
2022-11-29T19:01:47.791Z,6.37
2022-11-29T19:04:18.455Z,6.80
2022-11-29T19:06:46.716Z,6.93
2022-11-29T19:09:19.340Z,7.10
2022-11-29T19:11:48.776Z,6.80
2022-11-29T19:14:16.945Z,6.73
2022-11-29T19:16:48.247Z,7.40
2022-11-29T19:19:18.818Z,7.00
2022-11-29T19:21:46.985Z,6.73
2022-11-29T19:24:18.728Z,7.60
2022-11-29T19:26:48.555Z,7.40
2022-11-29T19:29:17.204Z,7.37
2022-11-29T19:31:45.405Z,6.70
2022-11-29T19:34:13.592Z,7.40
2022-11-29T19:36:44.432Z,7.20
2022-11-29T19:39:14.403Z,5.53
2022-11-29T19:41:45.641Z,6.73
2022-11-29T19:44:14.439Z,7.17
2022-11-29T19:46:44.608Z,6.47
2022-11-29T19:49:13.207Z,5.20
2022-11-29T19:51:41.547Z,6.10
2022-11-29T19:54:10.756Z,8.20
2022-11-29T19:56:39.439Z,6.60
2022-11-29T19:59:09.996Z,6.70
2022-11-29T20:01:41.431Z,6.33
2022-11-29T20:04:11.963Z,7.33
2022-11-29T20:06:40.533Z,6.27
2022-11-29T20:09:08.957Z,7.80
2022-11-29T20:11:37.146Z,7.73
2022-11-29T20:14:06.423Z,6.67
2022-11-29T20:16:36.802Z,6.70
2022-11-29T20:19:09.754Z,7.37
2022-11-29T20:21:42.198Z,6.60
2022-11-29T20:24:11.246Z,6.30
2022-11-29T20:26:40.741Z,7.10
2022-11-29T20:29:10.285Z,5.60
2022-11-29T20:31:46.008Z,8.43
2022-11-29T20:34:17.913Z,8.17
2022-11-29T20:37:20.181Z,6.53
2022-11-29T20:39:53.799Z,7.53
2022-11-29T20:42:40.452Z,8.20
2022-11-29T20:45:10.286Z,8.50
2022-11-29T20:47:50.406Z,9.20
2022-11-29T20:50:23.268Z,13.63
2022-11-29T20:53:08.386Z,9.23
2022-11-29T20:55:42.490Z,9.57
2022-11-29T20:58:14.575Z,6.70
2022-11-29T21:00:43.003Z,10.63
2022-11-29T21:03:15.662Z,8.60
2022-11-29T21:05:44.450Z,9.10
2022-11-29T21:08:12.616Z,7.37
2022-11-29T21:10:40.908Z,6.30
2022-11-29T21:13:11.816Z,10.13
2022-11-29T21:15:40.744Z,9.30
2022-11-29T21:18:15.600Z,8.80
2022-11-29T21:20:47.951Z,9.40
2022-11-29T21:23:24.088Z,7.13
2022-11-29T21:26:00.439Z,9.07
2022-11-29T21:28:33.222Z,7.83
2022-11-29T21:31:02.062Z,8.37
2022-11-29T21:33:30.838Z,7.63
2022-11-29T21:36:01.746Z,6.00
2022-11-29T21:38:30.596Z,6.53
2022-11-29T21:40:58.794Z,5.90
2022-11-29T21:43:58.134Z,8.33
2022-11-29T21:46:15.590Z,7.53
2022-11-29T21:48:44.510Z,6.30
2022-11-29T21:51:14.090Z,6.50
2022-11-29T21:53:42.459Z,7.03
2022-11-29T21:56:12.199Z,7.70
2022-11-29T21:58:40.960Z,7.40
2022-11-29T22:01:10.810Z,6.77
2022-11-29T22:03:40.254Z,5.70
2022-11-29T22:06:10.478Z,6.37
2022-11-29T22:08:41.858Z,7.70
2022-11-29T22:11:11.838Z,5.90
2022-11-29T22:14:02.049Z,6.40
2022-11-29T22:16:31.136Z,5.77
2022-11-29T22:18:59.309Z,5.13
2022-11-29T22:21:27.500Z,5.47
2022-11-29T22:23:57.160Z,5.90
2022-11-29T22:26:25.329Z,4.70
2022-11-29T22:28:53.449Z,5.80
2022-11-29T22:31:21.548Z,4.33
2022-11-29T22:33:49.706Z,5.57
2022-11-29T22:36:17.905Z,4.07
2022-11-29T22:38:45.956Z,3.20
2022-11-29T22:41:16.845Z,3.50
2022-11-29T22:43:45.398Z,3.07
2022-11-29T22:46:15.294Z,4.07
2022-11-29T22:48:44.980Z,3.73
2022-11-29T22:51:14.893Z,3.40
2022-11-29T22:53:44.708Z,4.40
2022-11-29T22:56:13.054Z,3.50
2022-11-29T22:58:42.779Z,3.17
2022-11-29T23:01:12.702Z,3.67
2022-11-29T23:03:43.372Z,2.80
2022-11-29T23:06:13.800Z,3.77
2022-11-29T23:08:43.622Z,2.93
2022-11-29T23:11:14.622Z,3.27
2022-11-29T23:13:44.551Z,3.50
2022-11-29T23:16:14.968Z,3.60
2022-11-29T23:18:45.593Z,3.60
2022-11-29T23:21:15.877Z,3.53
2022-11-29T23:23:44.692Z,3.93
2022-11-29T23:26:18.890Z,4.10
2022-11-29T23:28:48.940Z,2.80
2022-11-29T23:31:17.385Z,3.10
2022-11-29T23:33:45.623Z,3.90
2022-11-29T23:36:15.395Z,4.23
2022-11-29T23:38:44.185Z,3.90
2022-11-29T23:41:13.189Z,4.10
2022-11-29T23:43:42.501Z,3.67
2022-11-29T23:46:15.666Z,4.10
2022-11-29T23:48:44.571Z,5.20
2022-11-29T23:51:14.109Z,4.60
2022-11-29T23:53:42.886Z,3.67
2022-11-29T23:56:13.864Z,4.33
2022-11-29T23:58:42.468Z,5.47
